sensor_id;sensor_type;location;lat;lon;timestamp;P1;durP1;ratioP1;P2;durP2;ratioP2
39078;SDS011;24829;49.208;12.080;2022-07-22T00:01:05;18.27;;;16.48;;
39078;SDS011;24829;49.208;12.080;2022-07-22T00:03:31;17.70;;;15.73;;
39078;SDS011;24829;49.208;12.080;2022-07-22T00:05:56;18.92;;;16.92;;
39078;SDS011;24829;49.208;12.080;2022-07-22T00:08:22;17.83;;;16.00;;
39078;SDS011;24829;49.208;12.080;2022-07-22T00:10:47;17.90;;;15.93;;
39078;SDS011;24829;49.208;12.080;2022-07-22T00:13:13;21.65;;;17.67;;
39078;SDS011;24829;49.208;12.080;2022-07-22T00:15:39;18.98;;;16.08;;
39078;SDS011;24829;49.208;12.080;2022-07-22T00:18:04;22.58;;;18.40;;
39078;SDS011;24829;49.208;12.080;2022-07-22T00:20:30;19.02;;;15.30;;
39078;SDS011;24829;49.208;12.080;2022-07-22T00:22:55;19.13;;;17.02;;
39078;SDS011;24829;49.208;12.080;2022-07-22T00:25:21;20.05;;;15.68;;
39078;SDS011;24829;49.208;12.080;2022-07-22T00:27:47;18.98;;;16.55;;
39078;SDS011;24829;49.208;12.080;2022-07-22T00:30:13;19.23;;;16.63;;
39078;SDS011;24829;49.208;12.080;2022-07-22T00:32:38;17.58;;;15.73;;
39078;SDS011;24829;49.208;12.080;2022-07-22T00:35:04;17.63;;;15.57;;
39078;SDS011;24829;49.208;12.080;2022-07-22T00:37:30;21.10;;;17.10;;
39078;SDS011;24829;49.208;12.080;2022-07-22T00:39:56;20.80;;;16.77;;
39078;SDS011;24829;49.208;12.080;2022-07-22T00:42:21;19.98;;;16.17;;
39078;SDS011;24829;49.208;12.080;2022-07-22T00:44:47;21.13;;;15.98;;
39078;SDS011;24829;49.208;12.080;2022-07-22T00:47:12;19.70;;;16.13;;
39078;SDS011;24829;49.208;12.080;2022-07-22T00:49:38;18.45;;;16.42;;
39078;SDS011;24829;49.208;12.080;2022-07-22T00:52:04;21.08;;;16.67;;
39078;SDS011;24829;49.208;12.080;2022-07-22T00:54:30;19.08;;;17.10;;
39078;SDS011;24829;49.208;12.080;2022-07-22T00:56:56;18.65;;;16.30;;
39078;SDS011;24829;49.208;12.080;2022-07-22T00:59:22;18.88;;;16.88;;
39078;SDS011;24829;49.208;12.080;2022-07-22T01:01:48;19.50;;;16.48;;
39078;SDS011;24829;49.208;12.080;2022-07-22T01:04:13;19.52;;;17.42;;
39078;SDS011;24829;49.208;12.080;2022-07-22T01:06:39;20.15;;;17.77;;
39078;SDS011;24829;49.208;12.080;2022-07-22T01:09:09;21.15;;;18.15;;
39078;SDS011;24829;49.208;12.080;2022-07-22T01:11:35;21.50;;;18.33;;
39078;SDS011;24829;49.208;12.080;2022-07-22T01:14:01;20.42;;;18.05;;
39078;SDS011;24829;49.208;12.080;2022-07-22T01:16:26;23.58;;;19.58;;
39078;SDS011;24829;49.208;12.080;2022-07-22T01:18:52;21.50;;;19.20;;
39078;SDS011;24829;49.208;12.080;2022-07-22T01:21:18;24.80;;;18.67;;
39078;SDS011;24829;49.208;12.080;2022-07-22T01:23:44;23.33;;;18.77;;
39078;SDS011;24829;49.208;12.080;2022-07-22T01:26:10;20.80;;;18.60;;
39078;SDS011;24829;49.208;12.080;2022-07-22T01:28:37;23.25;;;19.15;;
39078;SDS011;24829;49.208;12.080;2022-07-22T01:31:03;20.88;;;18.63;;
39078;SDS011;24829;49.208;12.080;2022-07-22T01:33:30;24.02;;;19.02;;
39078;SDS011;24829;49.208;12.080;2022-07-22T01:35:56;25.08;;;19.40;;
39078;SDS011;24829;49.208;12.080;2022-07-22T01:38:21;22.75;;;19.65;;
39078;SDS011;24829;49.208;12.080;2022-07-22T01:40:47;22.08;;;19.05;;
39078;SDS011;24829;49.208;12.080;2022-07-22T01:43:13;22.63;;;20.02;;
39078;SDS011;24829;49.208;12.080;2022-07-22T01:45:42;21.75;;;18.85;;
39078;SDS011;24829;49.208;12.080;2022-07-22T01:48:09;22.55;;;19.08;;
39078;SDS011;24829;49.208;12.080;2022-07-22T01:50:34;22.05;;;19.58;;
39078;SDS011;24829;49.208;12.080;2022-07-22T01:53:00;24.13;;;20.48;;
39078;SDS011;24829;49.208;12.080;2022-07-22T01:55:25;21.30;;;19.00;;
39078;SDS011;24829;49.208;12.080;2022-07-22T01:57:51;22.55;;;19.73;;
39078;SDS011;24829;49.208;12.080;2022-07-22T02:00:17;21.52;;;17.20;;
39078;SDS011;24829;49.208;12.080;2022-07-22T02:02:42;21.33;;;19.10;;
39078;SDS011;24829;49.208;12.080;2022-07-22T02:05:08;22.90;;;18.40;;
39078;SDS011;24829;49.208;12.080;2022-07-22T02:07:34;21.65;;;19.20;;
39078;SDS011;24829;49.208;12.080;2022-07-22T02:09:59;23.55;;;19.90;;
39078;SDS011;24829;49.208;12.080;2022-07-22T02:12:25;20.42;;;18.35;;
39078;SDS011;24829;49.208;12.080;2022-07-22T02:14:51;23.83;;;19.02;;
39078;SDS011;24829;49.208;12.080;2022-07-22T02:17:16;22.75;;;19.05;;
39078;SDS011;24829;49.208;12.080;2022-07-22T02:19:42;20.33;;;18.13;;
39078;SDS011;24829;49.208;12.080;2022-07-22T02:22:08;19.45;;;17.35;;
39078;SDS011;24829;49.208;12.080;2022-07-22T02:24:34;20.27;;;17.75;;
39078;SDS011;24829;49.208;12.080;2022-07-22T02:26:59;23.88;;;20.10;;
39078;SDS011;24829;49.208;12.080;2022-07-22T02:29:26;24.58;;;19.65;;
39078;SDS011;24829;49.208;12.080;2022-07-22T02:31:52;22.35;;;19.92;;
39078;SDS011;24829;49.208;12.080;2022-07-22T02:34:17;25.98;;;21.42;;
39078;SDS011;24829;49.208;12.080;2022-07-22T02:36:43;23.00;;;20.00;;
39078;SDS011;24829;49.208;12.080;2022-07-22T02:39:08;23.23;;;20.77;;
39078;SDS011;24829;49.208;12.080;2022-07-22T02:41:34;24.25;;;21.67;;
39078;SDS011;24829;49.208;12.080;2022-07-22T02:43:59;24.88;;;22.13;;
39078;SDS011;24829;49.208;12.080;2022-07-22T02:46:25;28.40;;;21.13;;
39078;SDS011;24829;49.208;12.080;2022-07-22T02:48:53;22.90;;;20.42;;
39078;SDS011;24829;49.208;12.080;2022-07-22T02:51:19;20.80;;;18.63;;
39078;SDS011;24829;49.208;12.080;2022-07-22T02:53:45;28.27;;;20.45;;
39078;SDS011;24829;49.208;12.080;2022-07-22T02:56:11;23.08;;;20.27;;
39078;SDS011;24829;49.208;12.080;2022-07-22T02:58:37;22.50;;;19.90;;
39078;SDS011;24829;49.208;12.080;2022-07-22T03:01:02;22.92;;;20.00;;
39078;SDS011;24829;49.208;12.080;2022-07-22T03:03:28;25.02;;;21.02;;
39078;SDS011;24829;49.208;12.080;2022-07-22T03:06:00;22.75;;;20.35;;
39078;SDS011;24829;49.208;12.080;2022-07-22T03:08:25;25.08;;;20.38;;
39078;SDS011;24829;49.208;12.080;2022-07-22T03:10:51;23.27;;;19.67;;
39078;SDS011;24829;49.208;12.080;2022-07-22T03:13:17;24.05;;;21.50;;
39078;SDS011;24829;49.208;12.080;2022-07-22T03:15:43;26.73;;;21.30;;
39078;SDS011;24829;49.208;12.080;2022-07-22T03:18:08;25.08;;;20.40;;
39078;SDS011;24829;49.208;12.080;2022-07-22T03:20:34;27.05;;;21.00;;
39078;SDS011;24829;49.208;12.080;2022-07-22T03:23:00;25.27;;;21.33;;
39078;SDS011;24829;49.208;12.080;2022-07-22T03:25:26;26.83;;;20.98;;
39078;SDS011;24829;49.208;12.080;2022-07-22T03:27:52;25.38;;;21.15;;
39078;SDS011;24829;49.208;12.080;2022-07-22T03:30:17;25.50;;;22.65;;
39078;SDS011;24829;49.208;12.080;2022-07-22T03:32:43;23.33;;;20.65;;
39078;SDS011;24829;49.208;12.080;2022-07-22T03:35:11;25.90;;;22.02;;
39078;SDS011;24829;49.208;12.080;2022-07-22T03:37:38;27.13;;;22.42;;
39078;SDS011;24829;49.208;12.080;2022-07-22T03:40:04;23.38;;;20.88;;
39078;SDS011;24829;49.208;12.080;2022-07-22T03:42:30;26.83;;;23.65;;
39078;SDS011;24829;49.208;12.080;2022-07-22T03:44:55;25.63;;;21.98;;
39078;SDS011;24829;49.208;12.080;2022-07-22T03:47:21;25.70;;;22.48;;
39078;SDS011;24829;49.208;12.080;2022-07-22T03:49:48;26.80;;;23.13;;
39078;SDS011;24829;49.208;12.080;2022-07-22T03:52:14;27.50;;;23.05;;
39078;SDS011;24829;49.208;12.080;2022-07-22T03:54:40;27.90;;;23.38;;
39078;SDS011;24829;49.208;12.080;2022-07-22T03:57:06;24.77;;;21.80;;
39078;SDS011;24829;49.208;12.080;2022-07-22T03:59:32;33.70;;;23.90;;
39078;SDS011;24829;49.208;12.080;2022-07-22T04:01:57;32.70;;;23.77;;
39078;SDS011;24829;49.208;12.080;2022-07-22T04:04:23;26.95;;;22.63;;
39078;SDS011;24829;49.208;12.080;2022-07-22T04:06:48;27.70;;;23.63;;
39078;SDS011;24829;49.208;12.080;2022-07-22T04:09:16;25.98;;;23.17;;
39078;SDS011;24829;49.208;12.080;2022-07-22T04:11:42;26.27;;;22.98;;
39078;SDS011;24829;49.208;12.080;2022-07-22T04:14:07;23.65;;;21.25;;
39078;SDS011;24829;49.208;12.080;2022-07-22T04:16:33;27.08;;;22.90;;
39078;SDS011;24829;49.208;12.080;2022-07-22T04:19:00;27.80;;;23.23;;
39078;SDS011;24829;49.208;12.080;2022-07-22T04:21:26;26.08;;;23.38;;
39078;SDS011;24829;49.208;12.080;2022-07-22T04:23:52;29.70;;;22.25;;
39078;SDS011;24829;49.208;12.080;2022-07-22T04:26:18;25.88;;;23.08;;
39078;SDS011;24829;49.208;12.080;2022-07-22T04:28:43;25.15;;;22.38;;
39078;SDS011;24829;49.208;12.080;2022-07-22T04:31:10;22.73;;;20.25;;
39078;SDS011;24829;49.208;12.080;2022-07-22T04:33:35;23.20;;;20.42;;
39078;SDS011;24829;49.208;12.080;2022-07-22T04:36:01;23.08;;;20.65;;
39078;SDS011;24829;49.208;12.080;2022-07-22T04:38:27;24.58;;;20.48;;
39078;SDS011;24829;49.208;12.080;2022-07-22T04:40:52;21.42;;;19.13;;
39078;SDS011;24829;49.208;12.080;2022-07-22T04:43:18;20.95;;;18.75;;
39078;SDS011;24829;49.208;12.080;2022-07-22T04:45:43;19.73;;;17.73;;
39078;SDS011;24829;49.208;12.080;2022-07-22T04:48:09;20.27;;;17.95;;
39078;SDS011;24829;49.208;12.080;2022-07-22T04:50:38;21.23;;;18.90;;
39078;SDS011;24829;49.208;12.080;2022-07-22T04:53:03;20.38;;;18.40;;
39078;SDS011;24829;49.208;12.080;2022-07-22T04:55:29;21.20;;;18.88;;
39078;SDS011;24829;49.208;12.080;2022-07-22T04:57:55;20.88;;;18.65;;
39078;SDS011;24829;49.208;12.080;2022-07-22T05:00:20;20.48;;;18.48;;
39078;SDS011;24829;49.208;12.080;2022-07-22T05:02:46;20.73;;;18.75;;
39078;SDS011;24829;49.208;12.080;2022-07-22T05:05:12;19.35;;;17.27;;
39078;SDS011;24829;49.208;12.080;2022-07-22T05:07:37;19.83;;;17.83;;
39078;SDS011;24829;49.208;12.080;2022-07-22T05:10:03;22.13;;;17.60;;
39078;SDS011;24829;49.208;12.080;2022-07-22T05:12:29;19.95;;;17.88;;
39078;SDS011;24829;49.208;12.080;2022-07-22T05:14:55;20.80;;;18.77;;
39078;SDS011;24829;49.208;12.080;2022-07-22T05:17:20;19.83;;;16.15;;
39078;SDS011;24829;49.208;12.080;2022-07-22T05:19:46;19.35;;;17.35;;
39078;SDS011;24829;49.208;12.080;2022-07-22T05:22:12;20.65;;;18.52;;
39078;SDS011;24829;49.208;12.080;2022-07-22T05:24:37;20.50;;;16.98;;
39078;SDS011;24829;49.208;12.080;2022-07-22T05:27:03;22.83;;;16.80;;
39078;SDS011;24829;49.208;12.080;2022-07-22T05:29:30;19.85;;;17.88;;
39078;SDS011;24829;49.208;12.080;2022-07-22T05:31:55;19.83;;;17.75;;
39078;SDS011;24829;49.208;12.080;2022-07-22T05:34:21;19.00;;;17.00;;
39078;SDS011;24829;49.208;12.080;2022-07-22T05:36:47;18.35;;;16.42;;
39078;SDS011;24829;49.208;12.080;2022-07-22T05:39:12;21.20;;;17.40;;
39078;SDS011;24829;49.208;12.080;2022-07-22T05:41:38;20.67;;;18.48;;
39078;SDS011;24829;49.208;12.080;2022-07-22T05:44:04;20.52;;;17.65;;
39078;SDS011;24829;49.208;12.080;2022-07-22T05:46:30;22.38;;;18.73;;
39078;SDS011;24829;49.208;12.080;2022-07-22T05:48:56;20.80;;;17.35;;
39078;SDS011;24829;49.208;12.080;2022-07-22T05:51:21;19.05;;;17.02;;
39078;SDS011;24829;49.208;12.080;2022-07-22T05:53:47;20.67;;;16.90;;
39078;SDS011;24829;49.208;12.080;2022-07-22T05:56:14;19.13;;;17.33;;
39078;SDS011;24829;49.208;12.080;2022-07-22T05:58:40;19.77;;;17.85;;
39078;SDS011;24829;49.208;12.080;2022-07-22T06:01:07;18.35;;;16.50;;
39078;SDS011;24829;49.208;12.080;2022-07-22T06:03:33;19.40;;;16.75;;
39078;SDS011;24829;49.208;12.080;2022-07-22T06:05:58;18.02;;;16.02;;
39078;SDS011;24829;49.208;12.080;2022-07-22T06:08:26;19.35;;;16.60;;
39078;SDS011;24829;49.208;12.080;2022-07-22T06:10:52;18.52;;;16.75;;
39078;SDS011;24829;49.208;12.080;2022-07-22T06:13:17;20.02;;;17.95;;
39078;SDS011;24829;49.208;12.080;2022-07-22T06:15:43;18.85;;;16.77;;
39078;SDS011;24829;49.208;12.080;2022-07-22T06:18:09;18.60;;;16.80;;
39078;SDS011;24829;49.208;12.080;2022-07-22T06:20:35;18.25;;;16.35;;
39078;SDS011;24829;49.208;12.080;2022-07-22T06:23:00;19.75;;;17.58;;
39078;SDS011;24829;49.208;12.080;2022-07-22T06:25:26;23.15;;;17.25;;
39078;SDS011;24829;49.208;12.080;2022-07-22T06:27:51;20.08;;;17.27;;
39078;SDS011;24829;49.208;12.080;2022-07-22T06:30:17;20.30;;;16.50;;
39078;SDS011;24829;49.208;12.080;2022-07-22T06:32:43;18.77;;;16.85;;
39078;SDS011;24829;49.208;12.080;2022-07-22T06:35:08;21.33;;;18.75;;
39078;SDS011;24829;49.208;12.080;2022-07-22T06:37:34;19.55;;;17.70;;
39078;SDS011;24829;49.208;12.080;2022-07-22T06:40:00;19.20;;;17.50;;
39078;SDS011;24829;49.208;12.080;2022-07-22T06:42:26;20.77;;;17.27;;
39078;SDS011;24829;49.208;12.080;2022-07-22T06:44:51;21.05;;;17.95;;
39078;SDS011;24829;49.208;12.080;2022-07-22T06:47:17;18.45;;;15.85;;
39078;SDS011;24829;49.208;12.080;2022-07-22T06:49:42;19.33;;;16.27;;
39078;SDS011;24829;49.208;12.080;2022-07-22T06:52:08;21.75;;;17.50;;
39078;SDS011;24829;49.208;12.080;2022-07-22T06:54:33;20.67;;;17.70;;
39078;SDS011;24829;49.208;12.080;2022-07-22T06:56:59;18.95;;;16.13;;
39078;SDS011;24829;49.208;12.080;2022-07-22T06:59:24;18.30;;;16.40;;
39078;SDS011;24829;49.208;12.080;2022-07-22T07:01:50;17.52;;;15.93;;
39078;SDS011;24829;49.208;12.080;2022-07-22T07:04:15;21.02;;;17.23;;
39078;SDS011;24829;49.208;12.080;2022-07-22T07:06:43;16.88;;;15.18;;
39078;SDS011;24829;49.208;12.080;2022-07-22T07:09:09;16.55;;;15.05;;
39078;SDS011;24829;49.208;12.080;2022-07-22T07:11:35;20.20;;;15.52;;
39078;SDS011;24829;49.208;12.080;2022-07-22T07:14:00;15.52;;;13.73;;
39078;SDS011;24829;49.208;12.080;2022-07-22T07:16:26;17.05;;;13.75;;
39078;SDS011;24829;49.208;12.080;2022-07-22T07:18:52;15.32;;;13.63;;
39078;SDS011;24829;49.208;12.080;2022-07-22T07:21:17;13.88;;;12.52;;
39078;SDS011;24829;49.208;12.080;2022-07-22T07:23:43;14.38;;;12.88;;
39078;SDS011;24829;49.208;12.080;2022-07-22T07:26:08;14.05;;;11.50;;
39078;SDS011;24829;49.208;12.080;2022-07-22T07:28:34;13.38;;;12.07;;
39078;SDS011;24829;49.208;12.080;2022-07-22T07:31:00;12.63;;;11.32;;
39078;SDS011;24829;49.208;12.080;2022-07-22T07:33:26;14.00;;;11.20;;
39078;SDS011;24829;49.208;12.080;2022-07-22T07:35:51;11.80;;;9.93;;
39078;SDS011;24829;49.208;12.080;2022-07-22T07:38:17;11.23;;;10.13;;
39078;SDS011;24829;49.208;12.080;2022-07-22T07:40:42;12.40;;;10.85;;
39078;SDS011;24829;49.208;12.080;2022-07-22T07:43:08;11.35;;;10.23;;
39078;SDS011;24829;49.208;12.080;2022-07-22T07:45:34;11.18;;;9.70;;
39078;SDS011;24829;49.208;12.080;2022-07-22T07:48:01;10.50;;;9.32;;
39078;SDS011;24829;49.208;12.080;2022-07-22T07:50:28;10.63;;;8.68;;
39078;SDS011;24829;49.208;12.080;2022-07-22T07:52:53;14.02;;;8.27;;
39078;SDS011;24829;49.208;12.080;2022-07-22T07:55:20;8.48;;;7.50;;
39078;SDS011;24829;49.208;12.080;2022-07-22T07:57:47;9.07;;;8.27;;
39078;SDS011;24829;49.208;12.080;2022-07-22T08:00:14;7.40;;;6.80;;
39078;SDS011;24829;49.208;12.080;2022-07-22T08:02:40;8.25;;;6.47;;
39078;SDS011;24829;49.208;12.080;2022-07-22T08:05:06;9.70;;;6.22;;
39078;SDS011;24829;49.208;12.080;2022-07-22T08:07:33;7.25;;;6.55;;
39078;SDS011;24829;49.208;12.080;2022-07-22T08:09:59;7.28;;;6.68;;
39078;SDS011;24829;49.208;12.080;2022-07-22T08:12:24;11.35;;;6.50;;
39078;SDS011;24829;49.208;12.080;2022-07-22T08:14:50;7.22;;;6.53;;
39078;SDS011;24829;49.208;12.080;2022-07-22T08:17:16;8.32;;;7.47;;
39078;SDS011;24829;49.208;12.080;2022-07-22T08:19:41;6.68;;;5.95;;
39078;SDS011;24829;49.208;12.080;2022-07-22T08:22:07;5.93;;;5.25;;
39078;SDS011;24829;49.208;12.080;2022-07-22T08:24:32;6.75;;;5.85;;
39078;SDS011;24829;49.208;12.080;2022-07-22T08:26:58;7.72;;;6.13;;
39078;SDS011;24829;49.208;12.080;2022-07-22T08:29:24;9.18;;;7.25;;
39078;SDS011;24829;49.208;12.080;2022-07-22T08:31:49;10.40;;;7.03;;
39078;SDS011;24829;49.208;12.080;2022-07-22T08:34:15;7.82;;;6.40;;
39078;SDS011;24829;49.208;12.080;2022-07-22T08:36:40;9.35;;;7.72;;
39078;SDS011;24829;49.208;12.080;2022-07-22T08:39:06;8.45;;;5.65;;
39078;SDS011;24829;49.208;12.080;2022-07-22T08:41:33;7.15;;;6.40;;
39078;SDS011;24829;49.208;12.080;2022-07-22T08:44:06;7.35;;;6.03;;
39078;SDS011;24829;49.208;12.080;2022-07-22T08:46:33;8.50;;;5.38;;
39078;SDS011;24829;49.208;12.080;2022-07-22T08:49:00;9.80;;;5.97;;
39078;SDS011;24829;49.208;12.080;2022-07-22T08:51:26;8.20;;;6.38;;
39078;SDS011;24829;49.208;12.080;2022-07-22T08:53:53;7.10;;;5.47;;
39078;SDS011;24829;49.208;12.080;2022-07-22T08:56:21;8.90;;;7.43;;
39078;SDS011;24829;49.208;12.080;2022-07-22T08:58:47;11.07;;;6.50;;
39078;SDS011;24829;49.208;12.080;2022-07-22T09:01:14;7.95;;;5.65;;
39078;SDS011;24829;49.208;12.080;2022-07-22T09:06:10;6.90;;;6.05;;
39078;SDS011;24829;49.208;12.080;2022-07-22T09:11:26;6.43;;;5.45;;
39078;SDS011;24829;49.208;12.080;2022-07-22T09:13:56;7.70;;;6.28;;
39078;SDS011;24829;49.208;12.080;2022-07-22T09:19:07;6.35;;;5.72;;
39078;SDS011;24829;49.208;12.080;2022-07-22T09:21:34;6.07;;;5.47;;
39078;SDS011;24829;49.208;12.080;2022-07-22T09:24:02;8.70;;;6.13;;
39078;SDS011;24829;49.208;12.080;2022-07-22T09:26:35;6.75;;;6.05;;
39078;SDS011;24829;49.208;12.080;2022-07-22T09:29:03;7.25;;;6.47;;
39078;SDS011;24829;49.208;12.080;2022-07-22T09:31:34;7.03;;;5.95;;
39078;SDS011;24829;49.208;12.080;2022-07-22T09:34:01;9.63;;;6.05;;
39078;SDS011;24829;49.208;12.080;2022-07-22T09:36:28;9.45;;;7.10;;
39078;SDS011;24829;49.208;12.080;2022-07-22T09:38:55;8.25;;;6.95;;
39078;SDS011;24829;49.208;12.080;2022-07-22T09:41:21;9.70;;;6.88;;
39078;SDS011;24829;49.208;12.080;2022-07-22T09:43:47;7.90;;;7.13;;
39078;SDS011;24829;49.208;12.080;2022-07-22T09:46:15;9.52;;;7.30;;
39078;SDS011;24829;49.208;12.080;2022-07-22T09:48:40;6.95;;;6.35;;
39078;SDS011;24829;49.208;12.080;2022-07-22T09:51:06;7.47;;;6.88;;
39078;SDS011;24829;49.208;12.080;2022-07-22T09:53:32;9.40;;;7.82;;
39078;SDS011;24829;49.208;12.080;2022-07-22T09:55:59;9.63;;;8.30;;
39078;SDS011;24829;49.208;12.080;2022-07-22T09:58:27;11.30;;;8.38;;
39078;SDS011;24829;49.208;12.080;2022-07-22T10:00:54;9.45;;;7.15;;
39078;SDS011;24829;49.208;12.080;2022-07-22T10:03:26;12.48;;;8.82;;
39078;SDS011;24829;49.208;12.080;2022-07-22T10:05:54;13.30;;;7.78;;
39078;SDS011;24829;49.208;12.080;2022-07-22T10:08:20;10.27;;;7.82;;
39078;SDS011;24829;49.208;12.080;2022-07-22T10:10:46;10.15;;;7.18;;
39078;SDS011;24829;49.208;12.080;2022-07-22T10:13:13;8.88;;;7.22;;
39078;SDS011;24829;49.208;12.080;2022-07-22T10:15:39;9.35;;;7.90;;
39078;SDS011;24829;49.208;12.080;2022-07-22T10:18:06;7.68;;;6.43;;
39078;SDS011;24829;49.208;12.080;2022-07-22T10:20:34;7.03;;;6.32;;
39078;SDS011;24829;49.208;12.080;2022-07-22T10:23:01;12.82;;;7.68;;
39078;SDS011;24829;49.208;12.080;2022-07-22T10:28:20;7.50;;;6.80;;
39078;SDS011;24829;49.208;12.080;2022-07-22T10:30:47;15.63;;;6.75;;
39078;SDS011;24829;49.208;12.080;2022-07-22T10:33:15;8.50;;;7.60;;
39078;SDS011;24829;49.208;12.080;2022-07-22T10:35:52;6.43;;;5.78;;
39078;SDS011;24829;49.208;12.080;2022-07-22T10:38:19;6.38;;;5.72;;
39078;SDS011;24829;49.208;12.080;2022-07-22T10:40:50;6.97;;;5.75;;
39078;SDS011;24829;49.208;12.080;2022-07-22T10:43:27;9.68;;;6.07;;
39078;SDS011;24829;49.208;12.080;2022-07-22T10:45:56;7.15;;;6.22;;
39078;SDS011;24829;49.208;12.080;2022-07-22T10:53:43;7.30;;;6.60;;
39078;SDS011;24829;49.208;12.080;2022-07-22T10:58:55;6.97;;;6.28;;
39078;SDS011;24829;49.208;12.080;2022-07-22T11:01:23;7.80;;;6.45;;
39078;SDS011;24829;49.208;12.080;2022-07-22T11:03:54;9.65;;;6.25;;
39078;SDS011;24829;49.208;12.080;2022-07-22T11:09:01;6.95;;;6.30;;
39078;SDS011;24829;49.208;12.080;2022-07-22T11:16:40;8.93;;;6.18;;
39078;SDS011;24829;49.208;12.080;2022-07-22T11:19:06;8.45;;;6.70;;
39078;SDS011;24829;49.208;12.080;2022-07-22T11:21:33;7.05;;;6.38;;
39078;SDS011;24829;49.208;12.080;2022-07-22T11:24:00;6.50;;;5.93;;
39078;SDS011;24829;49.208;12.080;2022-07-22T11:26:35;7.15;;;6.55;;
39078;SDS011;24829;49.208;12.080;2022-07-22T11:31:36;6.88;;;5.93;;
39078;SDS011;24829;49.208;12.080;2022-07-22T11:34:13;7.00;;;6.30;;
39078;SDS011;24829;49.208;12.080;2022-07-22T11:36:41;6.35;;;5.82;;
39078;SDS011;24829;49.208;12.080;2022-07-22T11:39:09;8.68;;;6.43;;
39078;SDS011;24829;49.208;12.080;2022-07-22T11:41:37;6.80;;;5.70;;
39078;SDS011;24829;49.208;12.080;2022-07-22T11:44:03;8.93;;;5.30;;
39078;SDS011;24829;49.208;12.080;2022-07-22T11:46:37;6.93;;;5.38;;
39078;SDS011;24829;49.208;12.080;2022-07-22T11:49:04;7.05;;;6.25;;
39078;SDS011;24829;49.208;12.080;2022-07-22T11:51:30;7.35;;;6.30;;
39078;SDS011;24829;49.208;12.080;2022-07-22T11:53:57;6.75;;;6.05;;
39078;SDS011;24829;49.208;12.080;2022-07-22T11:56:23;8.93;;;6.72;;
39078;SDS011;24829;49.208;12.080;2022-07-22T11:58:49;10.70;;;6.75;;
39078;SDS011;24829;49.208;12.080;2022-07-22T12:01:19;12.65;;;6.10;;
39078;SDS011;24829;49.208;12.080;2022-07-22T12:03:47;6.63;;;5.90;;
39078;SDS011;24829;49.208;12.080;2022-07-22T12:06:19;7.63;;;5.65;;
39078;SDS011;24829;49.208;12.080;2022-07-22T12:08:53;9.80;;;6.18;;
39078;SDS011;24829;49.208;12.080;2022-07-22T12:11:36;6.03;;;5.53;;
39078;SDS011;24829;49.208;12.080;2022-07-22T12:14:05;9.35;;;6.00;;
39078;SDS011;24829;49.208;12.080;2022-07-22T12:16:31;8.25;;;6.25;;
39078;SDS011;24829;49.208;12.080;2022-07-22T12:18:58;5.90;;;5.38;;
39078;SDS011;24829;49.208;12.080;2022-07-22T12:21:27;6.07;;;5.50;;
39078;SDS011;24829;49.208;12.080;2022-07-22T12:23:56;6.40;;;5.22;;
39078;SDS011;24829;49.208;12.080;2022-07-22T12:26:44;6.90;;;5.53;;
39078;SDS011;24829;49.208;12.080;2022-07-22T12:31:54;5.82;;;5.22;;
39078;SDS011;24829;49.208;12.080;2022-07-22T12:34:31;5.90;;;5.38;;
39078;SDS011;24829;49.208;12.080;2022-07-22T12:37:21;6.15;;;5.20;;
39078;SDS011;24829;49.208;12.080;2022-07-22T12:42:45;7.20;;;5.38;;
39078;SDS011;24829;49.208;12.080;2022-07-22T12:45:23;6.97;;;6.00;;
39078;SDS011;24829;49.208;12.080;2022-07-22T12:47:56;6.28;;;5.20;;
39078;SDS011;24829;49.208;12.080;2022-07-22T12:51:04;5.80;;;5.30;;
39078;SDS011;24829;49.208;12.080;2022-07-22T12:53:23;6.63;;;5.90;;
39078;SDS011;24829;49.208;12.080;2022-07-22T12:55:52;6.80;;;5.00;;
39078;SDS011;24829;49.208;12.080;2022-07-22T12:58:29;5.88;;;4.57;;
39078;SDS011;24829;49.208;12.080;2022-07-22T13:00:58;6.85;;;4.38;;
39078;SDS011;24829;49.208;12.080;2022-07-22T13:03:25;5.80;;;4.50;;
39078;SDS011;24829;49.208;12.080;2022-07-22T13:05:53;7.10;;;4.57;;
39078;SDS011;24829;49.208;12.080;2022-07-22T13:08:21;6.30;;;4.60;;
39078;SDS011;24829;49.208;12.080;2022-07-22T13:10:48;7.63;;;4.75;;
39078;SDS011;24829;49.208;12.080;2022-07-22T13:13:17;7.75;;;5.18;;
39078;SDS011;24829;49.208;12.080;2022-07-22T13:15:43;5.75;;;5.25;;
39078;SDS011;24829;49.208;12.080;2022-07-22T13:18:09;8.95;;;5.45;;
39078;SDS011;24829;49.208;12.080;2022-07-22T13:20:35;5.90;;;4.55;;
39078;SDS011;24829;49.208;12.080;2022-07-22T13:23:00;7.82;;;5.13;;
39078;SDS011;24829;49.208;12.080;2022-07-22T13:25:26;6.93;;;5.32;;
39078;SDS011;24829;49.208;12.080;2022-07-22T13:27:55;8.25;;;5.13;;
39078;SDS011;24829;49.208;12.080;2022-07-22T13:30:20;6.03;;;4.63;;
39078;SDS011;24829;49.208;12.080;2022-07-22T13:32:46;5.60;;;5.10;;
39078;SDS011;24829;49.208;12.080;2022-07-22T13:35:11;4.50;;;4.10;;
39078;SDS011;24829;49.208;12.080;2022-07-22T13:37:37;6.22;;;5.15;;
39078;SDS011;24829;49.208;12.080;2022-07-22T13:40:03;11.25;;;4.78;;
39078;SDS011;24829;49.208;12.080;2022-07-22T13:42:29;6.47;;;5.00;;
39078;SDS011;24829;49.208;12.080;2022-07-22T13:44:55;6.60;;;5.25;;
39078;SDS011;24829;49.208;12.080;2022-07-22T13:47:20;6.05;;;4.85;;
39078;SDS011;24829;49.208;12.080;2022-07-22T13:49:47;5.50;;;4.95;;
39078;SDS011;24829;49.208;12.080;2022-07-22T13:52:14;5.70;;;5.10;;
39078;SDS011;24829;49.208;12.080;2022-07-22T13:54:40;7.75;;;4.53;;
39078;SDS011;24829;49.208;12.080;2022-07-22T13:57:05;5.90;;;5.38;;
39078;SDS011;24829;49.208;12.080;2022-07-22T13:59:31;11.32;;;5.32;;
39078;SDS011;24829;49.208;12.080;2022-07-22T14:01:58;5.15;;;4.63;;
39078;SDS011;24829;49.208;12.080;2022-07-22T14:04:24;6.30;;;4.97;;
39078;SDS011;24829;49.208;12.080;2022-07-22T14:06:50;5.18;;;4.47;;
39078;SDS011;24829;49.208;12.080;2022-07-22T14:09:15;6.10;;;5.22;;
39078;SDS011;24829;49.208;12.080;2022-07-22T14:11:41;8.13;;;4.88;;
39078;SDS011;24829;49.208;12.080;2022-07-22T14:14:07;6.32;;;4.50;;
39078;SDS011;24829;49.208;12.080;2022-07-22T14:16:33;6.72;;;5.00;;
39078;SDS011;24829;49.208;12.080;2022-07-22T14:19:10;5.55;;;4.43;;
39078;SDS011;24829;49.208;12.080;2022-07-22T14:21:37;11.98;;;5.05;;
39078;SDS011;24829;49.208;12.080;2022-07-22T14:24:05;5.95;;;4.95;;
39078;SDS011;24829;49.208;12.080;2022-07-22T14:26:32;6.45;;;5.80;;
39078;SDS011;24829;49.208;12.080;2022-07-22T14:28:59;6.40;;;4.78;;
39078;SDS011;24829;49.208;12.080;2022-07-22T14:31:24;7.38;;;4.75;;
39078;SDS011;24829;49.208;12.080;2022-07-22T14:33:50;5.47;;;4.80;;
39078;SDS011;24829;49.208;12.080;2022-07-22T14:36:16;5.07;;;4.65;;
39078;SDS011;24829;49.208;12.080;2022-07-22T14:38:42;5.82;;;5.10;;
39078;SDS011;24829;49.208;12.080;2022-07-22T14:41:08;5.05;;;4.57;;
39078;SDS011;24829;49.208;12.080;2022-07-22T14:43:34;5.25;;;4.75;;
39078;SDS011;24829;49.208;12.080;2022-07-22T14:45:59;5.20;;;4.70;;
39078;SDS011;24829;49.208;12.080;2022-07-22T14:48:26;4.88;;;4.38;;
39078;SDS011;24829;49.208;12.080;2022-07-22T14:50:52;6.85;;;4.68;;
39078;SDS011;24829;49.208;12.080;2022-07-22T14:53:18;5.53;;;5.00;;